Time;durP1;ratioP1;P1;durP2;ratioP2;P2;SDS_P1;SDS_P2;PMS_P1;PMS_P2;Temp;Humidity;BMP_temperature;BMP_pressure;BME280_temperature;BME280_humidity;BME280_pressure;Samples;Min_cycle;Max_cycle;Signal;HPM_P1;HPM_P2
2023/06/25 00:00:10;;;;;;;11.85;8.13;;;;;;;-146.58;100.00;69501.63;5029881;28;20037;-68
2023/06/25 00:02:36;;;;;;;14.02;8.50;;;;;;;-146.58;100.00;69501.63;5031299;28;20480;-68
2023/06/25 00:05:01;;;;;;;10.68;9.57;;;;;;;-146.58;100.00;69501.63;5029769;28;20041;-68
2023/06/25 00:07:26;;;;;;;12.15;9.75;;;;;;;-146.58;100.00;69501.63;5030987;28;20624;-68
2023/06/25 00:09:54;;;;;;;12.15;9.27;;;;;;;-146.58;100.00;69501.63;5029691;28;20045;-68
2023/06/25 00:12:19;;;;;;;13.37;9.10;;;;;;;-146.58;100.00;69501.63;5031312;28;20029;-68
2023/06/25 00:14:44;;;;;;;10.70;8.95;;;;;;;-146.58;100.00;69501.63;5029425;28;20389;-68
2023/06/25 00:17:10;;;;;;;9.90;9.00;;;;;;;-146.58;100.00;69501.63;5030976;28;20025;-68
2023/06/25 00:19:35;;;;;;;10.73;9.55;;;;;;;-146.58;100.00;69501.63;5029889;28;20026;-67
2023/06/25 00:22:00;;;;;;;11.75;10.57;;;;;;;-146.58;100.00;69501.63;5030389;28;20392;-67
2023/06/25 00:24:26;;;;;;;11.60;10.20;;;;;;;-146.58;100.00;69501.63;5029847;28;20037;-68
2023/06/25 00:26:51;;;;;;;14.55;10.05;;;;;;;-146.58;100.00;69501.63;5030501;28;20033;-68
2023/06/25 00:29:16;;;;;;;15.93;11.50;;;;;;;-146.58;100.00;69501.63;5029247;28;20041;-66
2023/06/25 00:31:42;;;;;;;15.38;11.27;;;;;;;-146.58;100.00;69501.63;5031003;28;20489;-67
2023/06/25 00:34:07;;;;;;;13.52;10.85;;;;;;;-146.58;100.00;69501.63;5027854;28;20412;-66
2023/06/25 00:36:36;;;;;;;12.73;11.02;;;;;;;-146.58;100.00;69501.63;5030943;28;20030;-66
2023/06/25 00:39:03;;;;;;;13.02;11.65;;;;;;;-146.58;100.00;69501.63;5029195;28;20060;-66
2023/06/25 00:41:28;;;;;;;12.95;11.35;;;;;;;-146.58;100.00;69501.63;5030981;28;20032;-66
2023/06/25 00:43:54;;;;;;;12.75;11.45;;;;;;;-146.58;100.00;69501.63;5029290;28;20033;-66
2023/06/25 00:46:23;;;;;;;12.45;11.18;;;;;;;-146.58;100.00;69501.63;5030381;28;20530;-67
2023/06/25 00:48:49;;;;;;;17.00;12.85;;;;;;;-146.58;100.00;69501.63;5027691;28;20045;-66
2023/06/25 00:51:15;;;;;;;17.67;12.15;;;;;;;-146.58;100.00;69501.63;5029537;28;20036;-66
2023/06/25 00:53:41;;;;;;;13.25;11.63;;;;;;;-146.58;100.00;69501.63;5029152;28;20068;-67
2023/06/25 00:56:07;;;;;;;11.60;10.50;;;;;;;-146.58;100.00;69501.63;5030413;28;20017;-67
2023/06/25 00:58:37;;;;;;;15.93;12.68;;;;;;;-146.58;100.00;69501.63;5029085;28;20041;-67
2023/06/25 01:01:11;;;;;;;15.30;13.75;;;;;;;-146.58;100.00;69501.63;5030152;28;20671;-67
2023/06/25 01:03:41;;;;;;;15.13;11.85;;;;;;;-146.58;100.00;69501.63;5029132;28;20117;-67
2023/06/25 01:06:21;;;;;;;14.27;12.25;;;;;;;-146.58;100.00;69501.63;5030603;28;20515;-67
2023/06/25 01:08:50;;;;;;;14.38;10.98;;;;;;;-146.58;100.00;69501.63;5029019;28;20046;-67
2023/06/25 01:11:16;;;;;;;14.80;13.15;;;;;;;-146.58;100.00;69501.63;5030770;28;20025;-67
2023/06/25 01:13:42;;;;;;;16.10;13.35;;;;;;;-146.58;100.00;69501.63;5028822;28;20044;-67
2023/06/25 01:16:07;;;;;;;14.38;12.85;;;;;;;-146.58;100.00;69501.63;5030175;28;20029;-67
2023/06/25 01:18:33;;;;;;;14.60;13.18;;;;;;;-146.58;100.00;69501.63;5028902;28;20061;-67
2023/06/25 01:21:00;;;;;;;17.38;12.93;;;;;;;-146.58;100.00;69501.63;5029067;28;20113;-67
2023/06/25 01:23:28;;;;;;;14.10;12.15;;;;;;;-146.58;100.00;69501.63;5029035;28;20038;-67
2023/06/25 01:25:53;;;;;;;16.50;14.73;;;;;;;-146.58;100.00;69501.63;5030302;28;20092;-67
2023/06/25 01:28:20;;;;;;;15.27;13.20;;;;;;;-146.58;100.00;69501.63;5028981;28;20431;-67
2023/06/25 01:30:52;;;;;;;20.35;13.90;;;;;;;-146.58;100.00;69501.63;5029921;28;20381;-67
2023/06/25 01:33:19;;;;;;;17.02;14.05;;;;;;;-146.58;100.00;69501.63;5029064;28;20502;-67
2023/06/25 01:35:44;;;;;;;14.82;13.32;;;;;;;-146.58;100.00;69501.63;5030452;28;20622;-67
2023/06/25 01:38:10;;;;;;;17.55;14.52;;;;;;;-146.58;100.00;69501.63;5029605;28;20060;-67
2023/06/25 01:40:36;;;;;;;17.38;14.65;;;;;;;-146.58;100.00;69501.63;5034387;28;20014;-67
2023/06/25 01:43:01;;;;;;;17.27;14.05;;;;;;;-146.58;100.00;69501.63;5032463;28;20029;-66
2023/06/25 01:45:26;;;;;;;16.73;14.85;;;;;;;-146.58;100.00;69501.63;5033602;28;20443;-67
2023/06/25 01:47:52;;;;;;;17.98;15.38;;;;;;;-146.58;100.00;69501.63;5033659;28;20105;-67
2023/06/25 01:50:17;;;;;;;17.55;14.82;;;;;;;-146.58;100.00;69501.63;5032262;28;20049;-66
2023/06/25 01:52:43;;;;;;;21.48;16.23;;;;;;;-146.58;100.00;69501.63;5033567;28;20028;-67
2023/06/25 01:55:08;;;;;;;19.17;14.15;;;;;;;-146.58;100.00;69501.63;5032160;28;20426;-67
2023/06/25 01:57:33;;;;;;;20.13;16.27;;;;;;;-146.58;100.00;69501.63;5033814;28;20032;-67
2023/06/25 01:59:59;;;;;;;17.92;15.05;;;;;;;-146.58;100.00;69501.63;5030520;28;20034;-67
2023/06/25 02:02:24;;;;;;;22.33;17.73;;;;;;;-146.58;100.00;69501.63;5033923;28;20025;-67
2023/06/25 02:04:49;;;;;;;26.63;17.02;;;;;;;-146.58;100.00;69501.63;5031549;28;20045;-67
2023/06/25 02:07:15;;;;;;;20.80;16.15;;;;;;;-146.58;100.00;69501.63;5033371;28;20033;-67
2023/06/25 02:09:40;;;;;;;18.67;14.98;;;;;;;-146.58;100.00;69501.63;5031884;28;20524;-67
2023/06/25 02:12:06;;;;;;;20.33;17.13;;;;;;;-146.58;100.00;69501.63;5033549;28;20028;-67
2023/06/25 02:14:31;;;;;;;18.25;16.38;;;;;;;-146.58;100.00;69501.63;5031554;28;20099;-67
2023/06/25 02:16:57;;;;;;;20.73;18.55;;;;;;;-146.58;100.00;69501.63;5033251;28;20488;-67
2023/06/25 02:19:22;;;;;;;21.40;18.27;;;;;;;-146.58;100.00;69501.63;5032253;28;20041;-67
2023/06/25 02:21:47;;;;;;;22.48;18.15;;;;;;;-146.58;100.00;69501.63;5032760;28;20028;-69
2023/06/25 02:24:13;;;;;;;19.67;16.08;;;;;;;-146.58;100.00;69501.63;5031939;28;20038;-66
2023/06/25 02:26:40;;;;;;;23.50;20.00;;;;;;;-146.58;100.00;69501.63;5033341;28;20017;-66
2023/06/25 02:29:05;;;;;;;21.98;19.65;;;;;;;-146.58;100.00;69501.63;5031304;28;20400;-68
2023/06/25 02:31:30;;;;;;;24.55;20.73;;;;;;;-146.58;100.00;69501.63;5033451;28;20022;-67
2023/06/25 02:33:56;;;;;;;22.17;18.25;;;;;;;-146.58;100.00;69501.63;5030997;28;20049;-64
2023/06/25 02:36:21;;;;;;;25.23;20.70;;;;;;;-146.58;100.00;69501.63;5032790;28;20072;-65
2023/06/25 02:38:47;;;;;;;23.63;19.23;;;;;;;-146.58;100.00;69501.63;5031349;28;20069;-65
2023/06/25 02:41:12;;;;;;;23.48;17.98;;;;;;;-146.58;100.00;69501.63;5033199;28;20029;-65
2023/06/25 02:43:37;;;;;;;26.23;21.90;;;;;;;-146.58;100.00;69501.63;5031184;28;20037;-65
2023/06/25 02:46:03;;;;;;;28.38;19.90;;;;;;;-146.58;100.00;69501.63;5032864;28;20503;-65
2023/06/25 02:48:28;;;;;;;24.15;19.30;;;;;;;-146.58;100.00;69501.63;5031492;28;20044;-68
2023/06/25 02:50:54;;;;;;;26.17;22.77;;;;;;;-146.58;100.00;69501.63;5032432;28;20036;-68
2023/06/25 02:53:19;;;;;;;21.85;18.25;;;;;;;-146.58;100.00;69501.63;5031509;28;20496;-68
2023/06/25 02:55:44;;;;;;;23.63;19.58;;;;;;;-146.58;100.00;69501.63;5032723;28;20021;-68
2023/06/25 02:58:10;;;;;;;22.17;19.73;;;;;;;-146.58;100.00;69501.63;5030788;28;20033;-68
2023/06/25 03:00:35;;;;;;;25.35;21.95;;;;;;;-146.58;100.00;69501.63;5032835;28;20033;-67
2023/06/25 03:03:00;;;;;;;26.25;20.17;;;;;;;-146.58;100.00;69501.63;5030985;28;20049;-67
2023/06/25 03:05:26;;;;;;;27.85;23.50;;;;;;;-146.58;100.00;69501.63;5032260;28;20492;-68
2023/06/25 03:07:54;;;;;;;30.20;22.20;;;;;;;-146.58;100.00;69501.63;5032250;28;20044;-67
2023/06/25 03:10:23;;;;;;;25.15;22.27;;;;;;;-146.58;100.00;69501.63;5031290;28;20038;-67
2023/06/25 03:12:48;;;;;;;30.25;26.33;;;;;;;-146.58;100.00;69501.63;5031899;28;20036;-67
2023/06/25 03:15:14;;;;;;;25.50;22.20;;;;;;;-146.58;100.00;69501.63;5030963;28;20049;-66
2023/06/25 03:17:39;;;;;;;25.80;21.42;;;;;;;-146.58;100.00;69501.63;5032433;28;20025;-67
2023/06/25 03:20:05;;;;;;;27.88;22.65;;;;;;;-146.58;100.00;69501.63;5030365;28;20857;-66
2023/06/25 03:22:31;;;;;;;27.27;23.02;;;;;;;-146.58;100.00;69501.63;5032235;28;20029;-67
2023/06/25 03:24:56;;;;;;;35.75;24.67;;;;;;;-146.58;100.00;69501.63;5030338;28;20611;-67
2023/06/25 03:27:21;;;;;;;25.92;21.83;;;;;;;-146.58;100.00;69501.63;5031940;28;20033;-67
2023/06/25 03:29:47;;;;;;;29.50;25.15;;;;;;;-146.58;100.00;69501.63;5030637;28;20056;-67
2023/06/25 03:32:12;;;;;;;28.63;24.02;;;;;;;-146.58;100.00;69501.63;5032227;28;20043;-67
2023/06/25 03:34:37;;;;;;;30.40;23.45;;;;;;;-146.58;100.00;69501.63;5029938;28;20045;-67
2023/06/25 03:37:03;;;;;;;28.92;25.38;;;;;;;-146.58;100.00;69501.63;5031692;28;20025;-70
2023/06/25 03:39:28;;;;;;;31.30;24.05;;;;;;;-146.58;100.00;69501.63;5030443;28;20065;-66
2023/06/25 03:41:53;;;;;;;28.25;23.75;;;;;;;-146.58;100.00;69501.63;5031462;28;20079;-66
2023/06/25 03:44:19;;;;;;;32.00;24.60;;;;;;;-146.58;100.00;69501.63;5030556;28;20045;-66
2023/06/25 03:46:44;;;;;;;29.73;25.05;;;;;;;-146.58;100.00;69501.63;5031969;28;20021;-66
2023/06/25 03:49:09;;;;;;;29.73;25.98;;;;;;;-146.58;100.00;69501.63;5029790;28;20052;-66
2023/06/25 03:51:35;;;;;;;35.13;24.85;;;;;;;-146.58;100.00;69501.63;5031789;28;20021;-66
2023/06/25 03:54:00;;;;;;;29.52;25.45;;;;;;;-146.58;100.00;69501.63;5029697;28;20429;-67
2023/06/25 03:56:25;;;;;;;41.03;25.67;;;;;;;-146.58;100.00;69501.63;5031374;28;20036;-66
2023/06/25 03:58:51;;;;;;;31.17;24.17;;;;;;;-146.58;100.00;69501.63;5029552;28;20089;-66
2023/06/25 04:01:16;;;;;;;47.47;28.45;;;;;;;-146.58;100.00;69501.63;5031125;28;20068;-66
2023/06/25 04:03:41;;;;;;;38.95;24.92;;;;;;;-146.58;100.00;69501.63;5028692;28;20046;-66
2023/06/25 04:06:07;;;;;;;26.40;23.55;;;;;;;-146.58;100.00;69501.63;5029365;28;20033;-66
2023/06/25 04:08:32;;;;;;;27.40;23.05;;;;;;;-146.58;100.00;69501.63;5029739;28;20052;-66
2023/06/25 04:10:57;;;;;;;28.05;24.38;;;;;;;-146.58;100.00;69501.63;5031293;28;20384;-66
2023/06/25 04:13:23;;;;;;;26.98;23.85;;;;;;;-146.58;100.00;69501.63;5029660;28;20033;-67
2023/06/25 04:15:48;;;;;;;30.75;26.00;;;;;;;-146.58;100.00;69501.63;5030618;28;20473;-67
2023/06/25 04:18:13;;;;;;;30.00;26.08;;;;;;;-146.58;100.00;69501.63;5029879;28;22647;-68
2023/06/25 04:20:39;;;;;;;30.10;25.60;;;;;;;-146.58;100.00;69501.63;5030908;28;20033;-67
2023/06/25 04:23:04;;;;;;;27.48;24.55;;;;;;;-146.58;100.00;69501.63;5029015;28;20017;-67
2023/06/25 04:25:30;;;;;;;36.20;27.27;;;;;;;-146.58;100.00;69501.63;5031299;28;20730;-67
2023/06/25 04:27:56;;;;;;;31.30;24.35;;;;;;;-146.58;100.00;69501.63;5027810;28;20018;-66
2023/06/25 04:30:21;;;;;;;37.03;28.77;;;;;;;-146.58;100.00;69501.63;5030567;28;20032;-67
2023/06/25 04:32:49;;;;;;;30.85;27.48;;;;;;;-146.58;100.00;69501.63;5030268;28;20033;-67
2023/06/25 04:35:16;;;;;;;31.52;26.52;;;;;;;-146.58;100.00;69501.63;5028882;28;20462;-67
2023/06/25 04:37:42;;;;;;;30.67;24.95;;;;;;;-146.58;100.00;69501.63;5030619;28;20014;-67
2023/06/25 04:40:08;;;;;;;31.23;25.65;;;;;;;-146.58;100.00;69501.63;5028851;28;20111;-67
2023/06/25 04:42:33;;;;;;;29.55;26.48;;;;;;;-146.58;100.00;69501.63;5028197;28;20033;-67
2023/06/25 04:44:58;;;;;;;36.40;27.02;;;;;;;-146.58;100.00;69501.63;5027467;28;20040;-69
2023/06/25 04:47:24;;;;;;;28.92;23.63;;;;;;;-146.58;100.00;69501.63;5030841;28;20590;-70
2023/06/25 04:49:49;;;;;;;35.05;25.23;;;;;;;-146.58;100.00;69501.63;5027437;28;20431;-73
2023/06/25 04:52:18;;;;;;;31.83;26.40;;;;;;;-146.58;100.00;69501.63;5028973;28;20041;-69
2023/06/25 04:54:47;;;;;;;27.90;24.67;;;;;;;-146.58;100.00;69501.63;5028742;28;20052;-69
2023/06/25 04:57:12;;;;;;;27.63;24.35;;;;;;;-146.58;100.00;69501.63;5029890;28;20044;-70
2023/06/25 04:59:37;;;;;;;33.15;24.58;;;;;;;-146.58;100.00;69501.63;5016758;28;20042;-69
2023/06/25 05:02:04;;;;;;;26.52;23.80;;;;;;;-146.58;100.00;69501.63;5010442;28;20040;-69
2023/06/25 05:04:30;;;;;;;30.27;27.20;;;;;;;-146.58;100.00;69501.63;5008501;28;20086;-69
2023/06/25 05:06:56;;;;;;;28.75;25.65;;;;;;;-146.58;100.00;69501.63;5009207;28;20022;-69
2023/06/25 05:09:21;;;;;;;29.38;25.10;;;;;;;-146.58;100.00;69501.63;5027363;28;20045;-69
2023/06/25 05:11:46;;;;;;;27.52;24.67;;;;;;;-146.58;100.00;69501.63;5028835;28;20025;-69
2023/06/25 05:14:12;;;;;;;31.75;25.55;;;;;;;-146.58;100.00;69501.63;5030671;28;20041;-69
2023/06/25 05:16:37;;;;;;;29.30;25.95;;;;;;;-146.58;100.00;69501.63;5028338;28;20404;-69
2023/06/25 05:19:02;;;;;;;30.20;26.10;;;;;;;-146.58;100.00;69501.63;5021468;28;20030;-69
2023/06/25 05:21:28;;;;;;;27.38;23.77;;;;;;;-146.58;100.00;69501.63;5026374;28;20087;-70
2023/06/25 05:24:05;;;;;;;29.33;26.40;;;;;;;-146.58;100.00;69501.63;5032396;28;20042;-68
2023/06/25 05:26:31;;;;;;;27.02;21.23;;;;;;;-146.58;100.00;69501.63;5033219;28;20048;-67
2023/06/25 05:28:57;;;;;;;25.33;22.40;;;;;;;-146.58;100.00;69501.63;5031123;28;20502;-72
2023/06/25 05:31:23;;;;;;;27.33;24.05;;;;;;;-146.58;100.00;69501.63;5028426;28;20395;-76
2023/06/25 05:33:48;;;;;;;25.05;22.45;;;;;;;-146.58;100.00;69501.63;5024430;28;20045;-74
2023/06/25 05:36:15;;;;;;;26.75;23.55;;;;;;;-146.58;100.00;69501.63;5025217;28;20037;-72
2023/06/25 05:38:40;;;;;;;23.67;21.33;;;;;;;-146.58;100.00;69501.63;5031940;28;20074;-69
2023/06/25 05:41:05;;;;;;;25.85;21.23;;;;;;;-146.58;100.00;69501.63;5032115;28;20073;-64
2023/06/25 05:43:31;;;;;;;25.67;21.40;;;;;;;-146.58;100.00;69501.63;5030910;28;20045;-66
2023/06/25 05:45:56;;;;;;;22.92;20.52;;;;;;;-146.58;100.00;69501.63;5032903;28;20392;-66
2023/06/25 05:48:22;;;;;;;23.23;18.65;;;;;;;-146.58;100.00;69501.63;5030946;28;20041;-65
2023/06/25 05:50:47;;;;;;;22.15;18.60;;;;;;;-146.58;100.00;69501.63;5031892;28;20531;-66
2023/06/25 05:53:12;;;;;;;22.75;18.33;;;;;;;-146.58;100.00;69501.63;5031584;28;20021;-65
2023/06/25 05:55:38;;;;;;;20.33;18.20;;;;;;;-146.58;100.00;69501.63;5032285;28;20017;-65
2023/06/25 05:58:03;;;;;;;18.65;16.70;;;;;;;-146.58;100.00;69501.63;5030001;28;20026;-65
2023/06/25 06:00:28;;;;;;;20.95;17.67;;;;;;;-146.58;100.00;69501.63;5033291;28;20047;-65
2023/06/25 06:02:54;;;;;;;16.48;14.90;;;;;;;-146.58;100.00;69501.63;5030924;28;20049;-66
2023/06/25 06:05:19;;;;;;;16.95;14.75;;;;;;;-146.58;100.00;69501.63;5030867;28;20095;-66
2023/06/25 06:07:45;;;;;;;18.27;16.45;;;;;;;-146.58;100.00;69501.63;5032713;28;20030;-68
2023/06/25 06:10:13;;;;;;;17.98;15.90;;;;;;;-146.58;100.00;69501.63;5031066;28;20037;-66
2023/06/25 06:12:39;;;;;;;19.40;17.55;;;;;;;-146.58;100.00;69501.63;5032550;28;20030;-67
2023/06/25 06:15:04;;;;;;;17.70;12.25;;;;;;;-146.58;100.00;69501.63;5029841;28;20467;-66
2023/06/25 06:17:30;;;;;;;16.20;13.77;;;;;;;-146.58;100.00;69501.63;5030827;28;20033;-66
2023/06/25 06:19:55;;;;;;;15.32;13.50;;;;;;;-146.58;100.00;69501.63;5031711;28;20042;-66
2023/06/25 06:22:21;;;;;;;16.77;15.07;;;;;;;-146.58;100.00;69501.63;5031173;28;20077;-66
2023/06/25 06:24:46;;;;;;;14.15;12.68;;;;;;;-146.58;100.00;69501.63;5030015;28;20037;-66
2023/06/25 06:27:12;;;;;;;14.20;12.35;;;;;;;-146.58;100.00;69501.63;5032642;28;20534;-66
2023/06/25 06:29:37;;;;;;;16.98;14.35;;;;;;;-146.58;100.00;69501.63;5030371;28;20045;-66
2023/06/25 06:32:03;;;;;;;13.07;11.73;;;;;;;-146.58;100.00;69501.63;5031770;28;20033;-66
2023/06/25 06:34:28;;;;;;;14.90;13.50;;;;;;;-146.58;100.00;69501.63;5031474;28;20403;-66
2023/06/25 06:36:54;;;;;;;15.43;12.50;;;;;;;-146.58;100.00;69501.63;5031131;28;20021;-66
2023/06/25 06:39:19;;;;;;;13.50;10.68;;;;;;;-146.58;100.00;69501.63;5030611;28;20041;-66
2023/06/25 06:41:44;;;;;;;17.92;11.85;;;;;;;-146.58;100.00;69501.63;5031639;28;20108;-66
2023/06/25 06:44:15;;;;;;;13.45;12.05;;;;;;;-146.58;100.00;69501.63;5029608;28;20041;-66
2023/06/25 06:46:41;;;;;;;11.40;9.68;;;;;;;-146.58;100.00;69501.63;5031294;28;20104;-68
2023/06/25 06:49:06;;;;;;;11.20;9.55;;;;;;;-146.58;100.00;69501.63;5028725;28;20140;-67
2023/06/25 06:51:32;;;;;;;13.55;9.93;;;;;;;-146.58;100.00;69501.63;5031577;28;20060;-67
2023/06/25 06:53:57;;;;;;;13.10;9.98;;;;;;;-146.58;100.00;69501.63;5024423;28;20069;-67
2023/06/25 06:56:22;;;;;;;13.20;10.23;;;;;;;-146.58;100.00;69501.63;5012290;28;20022;-67
2023/06/25 06:58:48;;;;;;;12.60;10.57;;;;;;;-146.58;100.00;69501.63;5021309;28;20045;-67
2023/06/25 07:01:13;;;;;;;11.32;9.90;;;;;;;-146.58;100.00;69501.63;5031586;28;20025;-67
2023/06/25 07:03:39;;;;;;;10.60;8.38;;;;;;;-146.58;100.00;69501.63;5030250;28;20051;-67
2023/06/25 07:06:04;;;;;;;13.40;9.82;;;;;;;-146.58;100.00;69501.63;5030756;28;20033;-67
2023/06/25 07:08:29;;;;;;;14.82;10.25;;;;;;;-146.58;100.00;69501.63;5030434;28;20041;-67
2023/06/25 07:10:55;;;;;;;10.07;8.48;;;;;;;-146.58;100.00;69501.63;5031419;28;20028;-67
2023/06/25 07:13:20;;;;;;;13.50;9.32;;;;;;;-146.58;100.00;69501.63;5029558;28;20041;-67
2023/06/25 07:15:46;;;;;;;10.98;9.77;;;;;;;-146.58;100.00;69501.63;5031268;28;20052;-67
2023/06/25 07:18:11;;;;;;;10.85;9.70;;;;;;;-146.58;100.00;69501.63;5029909;28;20036;-67
2023/06/25 07:20:36;;;;;;;10.10;9.07;;;;;;;-146.58;100.00;69501.63;5025329;28;20021;-67
2023/06/25 07:23:02;;;;;;;11.98;10.15;;;;;;;-146.58;100.00;69501.63;5026381;28;20032;-67
2023/06/25 07:25:27;;;;;;;10.75;9.70;;;;;;;-146.58;100.00;69501.63;5031145;28;20361;-66
2023/06/25 07:27:52;;;;;;;10.55;7.93;;;;;;;-146.58;100.00;69501.63;5029645;28;20418;-67
2023/06/25 07:30:18;;;;;;;15.52;10.93;;;;;;;-146.58;100.00;69501.63;5030087;28;20041;-67
2023/06/25 07:32:43;;;;;;;9.02;7.97;;;;;;;-146.58;100.00;69501.63;5030080;28;20048;-67
2023/06/25 07:35:09;;;;;;;9.05;8.15;;;;;;;-146.58;100.00;69501.63;5029565;28;20038;-67
2023/06/25 07:37:34;;;;;;;10.05;9.05;;;;;;;-146.58;100.00;69501.63;5031138;28;20044;-67
2023/06/25 07:39:59;;;;;;;10.25;9.25;;;;;;;-146.58;100.00;69501.63;5029675;28;20408;-67
2023/06/25 07:42:25;;;;;;;11.63;8.85;;;;;;;-146.58;100.00;69501.63;5031521;28;20033;-67
2023/06/25 07:44:50;;;;;;;11.75;9.77;;;;;;;-146.58;100.00;69501.63;5029278;28;20041;-67
2023/06/25 07:47:15;;;;;;;15.05;8.23;;;;;;;-146.58;100.00;69501.63;5031270;28;20435;-67
2023/06/25 07:49:41;;;;;;;11.18;8.85;;;;;;;-146.58;100.00;69501.63;5029646;28;20057;-67
2023/06/25 07:52:07;;;;;;;9.80;8.68;;;;;;;-146.58;100.00;69501.63;5030224;28;20028;-67
2023/06/25 07:54:32;;;;;;;10.70;9.25;;;;;;;-146.58;100.00;69501.63;5029277;28;20136;-68
2023/06/25 07:56:57;;;;;;;8.07;7.25;;;;;;;-146.58;100.00;69501.63;5031012;28;20160;-67
2023/06/25 07:59:23;;;;;;;8.60;7.72;;;;;;;-146.58;100.00;69501.63;5029633;28;20042;-67
2023/06/25 08:01:48;;;;;;;10.32;8.13;;;;;;;-146.58;100.00;69501.63;5030690;28;20032;-67
2023/06/25 08:04:13;;;;;;;11.90;9.07;;;;;;;-146.58;100.00;69501.63;5029192;28;20049;-67
2023/06/25 08:06:39;;;;;;;9.82;8.80;;;;;;;-146.58;100.00;69501.63;5012660;28;20080;-67
2023/06/25 08:09:04;;;;;;;9.90;8.38;;;;;;;-146.58;100.00;69501.63;5009449;28;20147;-68
2023/06/25 08:11:30;;;;;;;10.07;9.05;;;;;;;-146.58;100.00;69501.63;5010054;28;20026;-67
2023/06/25 08:13:55;;;;;;;11.95;8.15;;;;;;;-146.58;100.00;69501.63;5009636;28;20034;-67
2023/06/25 08:16:22;;;;;;;11.02;9.82;;;;;;;-146.58;100.00;69501.63;5010785;28;20481;-68
2023/06/25 08:18:47;;;;;;;13.00;8.82;;;;;;;-146.58;100.00;69501.63;5009413;28;20038;-67
2023/06/25 08:21:12;;;;;;;10.55;8.65;;;;;;;-146.58;100.00;69501.63;5011378;28;20026;-67
2023/06/25 08:23:38;;;;;;;10.52;8.15;;;;;;;-146.58;100.00;69501.63;5017380;28;20048;-68
2023/06/25 08:26:03;;;;;;;10.23;9.00;;;;;;;-146.58;100.00;69501.63;5030647;28;20530;-68
2023/06/25 08:28:28;;;;;;;15.20;9.02;;;;;;;-146.58;100.00;69501.63;5029364;28;20424;-67
2023/06/25 08:30:54;;;;;;;9.35;8.43;;;;;;;-146.58;100.00;69501.63;5029936;28;20504;-67
2023/06/25 08:33:19;;;;;;;10.52;8.95;;;;;;;-146.58;100.00;69501.63;5028019;28;20115;-67
2023/06/25 08:35:44;;;;;;;10.18;9.25;;;;;;;-146.58;100.00;69501.63;5030131;28;20028;-67
2023/06/25 08:38:10;;;;;;;10.15;8.57;;;;;;;-146.58;100.00;69501.63;5027749;28;20014;-67
2023/06/25 08:40:36;;;;;;;12.20;8.38;;;;;;;-146.58;100.00;69501.63;5030522;28;20577;-67
2023/06/25 08:43:01;;;;;;;9.73;8.63;;;;;;;-146.58;100.00;69501.63;5027445;28;20025;-66
2023/06/25 08:45:26;;;;;;;10.57;8.75;;;;;;;-146.58;100.00;69501.63;5030184;28;20496;-66
2023/06/25 08:47:56;;;;;;;15.52;8.85;;;;;;;-146.58;100.00;69501.63;5029973;28;20217;-66
2023/06/25 08:50:21;;;;;;;7.88;7.07;;;;;;;-146.58;100.00;69501.63;5029144;28;20045;-66
2023/06/25 08:52:47;;;;;;;10.38;7.03;;;;;;;-146.58;100.00;69501.63;5029708;28;20120;-65
2023/06/25 08:55:13;;;;;;;11.02;7.18;;;;;;;-146.58;100.00;69501.63;5028827;28;20088;-66
2023/06/25 08:57:39;;;;;;;9.63;6.90;;;;;;;-146.58;100.00;69501.63;5030262;28;20029;-66
2023/06/25 09:00:06;;;;;;;9.68;7.15;;;;;;;-146.58;100.00;69501.63;5028128;28;20044;-66
2023/06/25 09:02:32;;;;;;;9.60;6.75;;;;;;;-146.58;100.00;69501.63;5030059;28;20156;-66
2023/06/25 09:05:07;;;;;;;7.45;6.28;;;;;;;-146.58;100.00;69501.63;5027872;28;20037;-66
2023/06/25 09:07:34;;;;;;;8.35;6.38;;;;;;;-146.58;100.00;69501.63;5019739;28;20383;-66
2023/06/25 09:10:00;;;;;;;6.07;5.20;;;;;;;-146.58;100.00;69501.63;5028757;28;20099;-67
2023/06/25 09:12:25;;;;;;;8.20;5.50;;;;;;;-146.58;100.00;69501.63;5030076;28;20025;-67
2023/06/25 09:14:51;;;;;;;7.88;6.53;;;;;;;-146.58;100.00;69501.63;5028192;28;20044;-68
2023/06/25 09:17:23;;;;;;;10.85;6.40;;;;;;;-146.58;100.00;69501.63;5030234;28;20035;-68
2023/06/25 09:19:49;;;;;;;7.30;6.22;;;;;;;-146.58;100.00;69501.63;5028433;28;20497;-67
2023/06/25 09:22:14;;;;;;;7.45;6.72;;;;;;;-146.58;100.00;69501.63;5029040;28;20028;-69
2023/06/25 09:24:44;;;;;;;8.23;7.43;;;;;;;-146.58;100.00;69501.63;5028334;28;20048;-68
2023/06/25 09:27:10;;;;;;;5.57;4.93;;;;;;;-146.58;100.00;69501.63;5028664;28;20601;-68
2023/06/25 09:29:37;;;;;;;5.72;5.03;;;;;;;-146.58;100.00;69501.63;5024551;28;20049;-68
2023/06/25 09:32:12;;;;;;;7.55;6.00;;;;;;;-146.58;100.00;69501.63;5027718;28;20389;-69
2023/06/25 09:34:41;;;;;;;8.35;6.03;;;;;;;-146.58;100.00;69501.63;5028509;28;20083;-68
2023/06/25 09:37:07;;;;;;;6.25;5.03;;;;;;;-146.58;100.00;69501.63;5028709;28;20041;-68
2023/06/25 09:39:33;;;;;;;6.50;4.13;;;;;;;-146.58;100.00;69501.63;5028532;28;20046;-68
2023/06/25 09:42:00;;;;;;;4.80;4.40;;;;;;;-146.58;100.00;69501.63;5029452;28;20388;-68
2023/06/25 09:44:27;;;;;;;5.93;5.22;;;;;;;-146.58;100.00;69501.63;5019446;28;20052;-68
2023/06/25 09:47:01;;;;;;;9.50;5.13;;;;;;;-146.58;100.00;69501.63;5029520;28;20039;-68
2023/06/25 09:49:30;;;;;;;6.72;5.35;;;;;;;-146.58;100.00;69501.63;5028444;28;20185;-69
2023/06/25 09:51:59;;;;;;;11.23;6.57;;;;;;;-146.58;100.00;69501.63;5029231;28;20030;-69
2023/06/25 09:54:25;;;;;;;8.85;5.50;;;;;;;-146.58;100.00;69501.63;5027014;28;20171;-68
2023/06/25 09:56:53;;;;;;;9.63;5.00;;;;;;;-146.58;100.00;69501.63;5027398;28;20029;-68
2023/06/25 09:59:18;;;;;;;;;;;;;;;-146.58;100.00;69501.63;5024338;28;20073;-68
2023/06/25 10:01:44;;;;;;;6.43;4.85;;;;;;;-146.58;100.00;69501.63;5030325;28;20368;-69
2023/06/25 10:04:09;;;;;;;5.55;4.97;;;;;;;-146.58;100.00;69501.63;5037405;28;20102;-68
2023/06/25 10:06:36;;;;;;;6.03;4.85;;;;;;;-146.58;100.00;69501.63;5036407;28;20025;-68
2023/06/25 10:09:05;;;;;;;8.23;5.20;;;;;;;-146.58;100.00;69501.63;5028724;28;20053;-68
2023/06/25 10:11:31;;;;;;;8.13;4.68;;;;;;;-146.58;100.00;69501.63;5032998;28;20017;-68
2023/06/25 10:13:58;;;;;;;5.20;4.70;;;;;;;-146.58;100.00;69501.63;5031113;28;20041;-68
2023/06/25 10:16:24;;;;;;;5.63;4.57;;;;;;;-146.58;100.00;69501.63;5037122;28;20021;-68
2023/06/25 10:18:54;;;;;;;9.68;5.88;;;;;;;-146.58;100.00;69501.63;5028171;28;20056;-68
2023/06/25 10:21:22;;;;;;;7.78;5.85;;;;;;;-146.58;100.00;69501.63;5029871;28;20034;-68
2023/06/25 10:24:01;;;;;;;13.95;4.95;;;;;;;-146.58;100.00;69501.63;5029821;28;20507;-67
2023/06/25 10:26:30;;;;;;;7.47;5.97;;;;;;;-146.58;100.00;69501.63;5032130;28;20013;-68
2023/06/25 10:28:59;;;;;;;6.20;5.05;;;;;;;-146.58;100.00;69501.63;5028784;28;20343;-68
2023/06/25 10:31:26;;;;;;;6.03;5.22;;;;;;;-146.58;100.00;69501.63;5029026;28;20488;-68
2023/06/25 10:34:01;;;;;;;7.47;4.75;;;;;;;-146.58;100.00;69501.63;5024663;28;20073;-68
2023/06/25 10:36:27;;;;;;;7.80;6.18;;;;;;;-146.58;100.00;69501.63;5025383;28;20094;-68
2023/06/25 10:38:52;;;;;;;7.75;5.45;;;;;;;-146.58;100.00;69501.63;5020285;28;20041;-67
2023/06/25 10:41:28;;;;;;;14.32;6.15;;;;;;;-146.58;100.00;69501.63;5020691;28;20034;-68
2023/06/25 10:43:53;;;;;;;14.27;6.28;;;;;;;-146.58;100.00;69501.63;5025216;28;20049;-69
2023/06/25 10:46:29;;;;;;;7.00;6.28;;;;;;;-146.58;100.00;69501.63;5030891;28;20029;-68
2023/06/25 10:48:55;;;;;;;5.90;5.30;;;;;;;-146.58;100.00;69501.63;5026380;28;20041;-68
2023/06/25 10:51:20;;;;;;;5.43;4.90;;;;;;;-146.58;100.00;69501.63;5024481;28;20032;-68
2023/06/25 10:53:47;;;;;;;12.70;5.57;;;;;;;-146.58;100.00;69501.63;5032495;28;20052;-68